createdAt,value
2022-08-10T00:00:23.335Z,27.36
2022-08-10T00:01:24.983Z,27.34
2022-08-10T00:02:26.669Z,27.32
2022-08-10T00:03:28.198Z,27.31
2022-08-10T00:04:29.780Z,27.31
2022-08-10T00:05:43.138Z,27.30
2022-08-10T00:06:45.387Z,27.27
2022-08-10T00:07:47.154Z,27.26
2022-08-10T00:08:48.628Z,27.25
2022-08-10T00:09:51.348Z,27.26
2022-08-10T00:10:53.511Z,27.25
2022-08-10T00:11:55.009Z,27.24
2022-08-10T00:12:56.789Z,27.23
2022-08-10T00:13:58.459Z,27.19
2022-08-10T00:15:02.275Z,27.19
2022-08-10T00:16:04.219Z,27.19
2022-08-10T00:17:05.767Z,27.16
2022-08-10T00:18:07.554Z,27.10
2022-08-10T00:19:09.827Z,27.10
2022-08-10T00:20:11.706Z,27.07
2022-08-10T00:21:13.980Z,27.07
2022-08-10T00:22:16.892Z,27.07
2022-08-10T00:23:18.683Z,27.04
2022-08-10T00:24:20.219Z,27.01
2022-08-10T00:25:21.761Z,27.01
2022-08-10T00:26:23.270Z,27.01
2022-08-10T00:28:00.963Z,26.98
2022-08-10T00:28:46.827Z,26.98
2022-08-10T00:29:48.388Z,26.97
2022-08-10T00:30:49.888Z,26.97
2022-08-10T00:31:57.955Z,26.95
2022-08-10T00:33:00.903Z,26.94
2022-08-10T00:34:02.955Z,26.92
2022-08-10T00:35:04.884Z,26.93
2022-08-10T00:36:06.455Z,26.91
2022-08-10T00:37:07.940Z,26.90
2022-08-10T00:38:09.597Z,26.89
2022-08-10T00:39:13.760Z,26.88
2022-08-10T00:40:36.988Z,26.86
2022-08-10T00:41:39.617Z,26.82
2022-08-10T00:42:41.115Z,26.81
2022-08-10T00:43:42.653Z,26.80
2022-08-10T00:44:45.210Z,26.78
2022-08-10T00:45:46.697Z,26.79
2022-08-10T00:47:01.544Z,26.77
2022-08-10T00:48:03.065Z,26.76
2022-08-10T00:49:04.599Z,26.74
2022-08-10T00:50:06.355Z,26.72
2022-08-10T00:51:07.831Z,26.71
2022-08-10T00:52:09.436Z,26.69
2022-08-10T00:53:10.975Z,26.68
2022-08-10T00:54:24.386Z,26.67
2022-08-10T00:55:26.623Z,26.66
2022-08-10T00:57:14.555Z,26.65
2022-08-10T00:57:54.702Z,26.64
2022-08-10T00:58:57.014Z,26.62
2022-08-10T01:00:00.337Z,26.63
2022-08-10T01:01:02.293Z,26.61
2022-08-10T01:02:08.499Z,26.58
2022-08-10T01:03:12.988Z,26.54
2022-08-10T01:04:58.019Z,26.53
2022-08-10T01:05:37.050Z,26.53
2022-08-10T01:06:56.040Z,26.51
2022-08-10T01:08:07.512Z,26.50
2022-08-10T01:09:27.927Z,26.49
2022-08-10T01:10:44.094Z,26.49
2022-08-10T01:12:47.000Z,26.47
2022-08-10T01:13:10.200Z,26.44
2022-08-10T01:14:29.499Z,26.44
2022-08-10T01:15:39.514Z,26.43
2022-08-10T01:16:43.790Z,26.41
2022-08-10T01:17:51.634Z,26.39
2022-08-10T01:18:59.345Z,26.39
2022-08-10T01:20:08.500Z,26.34
2022-08-10T01:21:28.539Z,26.34
2022-08-10T01:22:33.436Z,26.31
2022-08-10T01:23:50.335Z,26.29
2022-08-10T01:24:57.790Z,26.27
2022-08-10T01:26:10.450Z,26.26
2022-08-10T01:27:27.295Z,26.26
2022-08-10T01:28:38.312Z,26.24
2022-08-10T01:29:59.947Z,26.21
2022-08-10T01:31:01.601Z,26.20
2022-08-10T01:32:03.858Z,26.18
2022-08-10T01:33:31.890Z,26.15
2022-08-10T01:34:49.722Z,26.15
2022-08-10T01:36:02.598Z,26.14
2022-08-10T01:37:05.422Z,26.14
2022-08-10T01:38:09.100Z,26.11
2022-08-10T01:39:10.685Z,26.10
2022-08-10T01:40:16.696Z,26.09
2022-08-10T01:41:46.263Z,26.09
2022-08-10T01:42:48.603Z,26.07
2022-08-10T01:43:52.295Z,26.08
2022-08-10T01:44:55.568Z,26.06
2022-08-10T01:45:57.412Z,26.05
2022-08-10T01:47:23.557Z,26.04
2022-08-10T01:48:29.025Z,26.04
2022-08-10T01:49:30.529Z,26.01
2022-08-10T01:50:33.922Z,26.01
2022-08-10T01:51:55.206Z,26.01
2022-08-10T01:52:58.668Z,26.01
2022-08-10T01:54:12.946Z,26.01
2022-08-10T01:55:14.827Z,26.00
2022-08-10T01:56:16.537Z,26.00
2022-08-10T01:57:18.011Z,25.99
2022-08-10T01:58:21.096Z,26.00
2022-08-10T01:59:32.175Z,25.99
2022-08-10T02:00:34.544Z,25.96
2022-08-10T02:01:39.687Z,25.94
2022-08-10T02:02:41.242Z,25.94
2022-08-10T02:04:03.107Z,25.93
2022-08-10T02:05:05.375Z,25.91
2022-08-10T02:06:07.344Z,25.88
2022-08-10T02:07:09.805Z,25.87
2022-08-10T02:08:14.958Z,25.87
2022-08-10T02:09:26.380Z,25.87
2022-08-10T02:10:28.012Z,25.85
2022-08-10T02:11:29.523Z,25.85
2022-08-10T02:12:51.065Z,25.83
2022-08-10T02:13:52.575Z,25.82
2022-08-10T02:14:54.748Z,25.82
2022-08-10T02:16:01.985Z,25.80
2022-08-10T02:17:05.515Z,25.79
2022-08-10T02:18:07.112Z,25.77
2022-08-10T02:19:08.622Z,25.77
2022-08-10T02:20:20.806Z,25.77
2022-08-10T02:21:22.567Z,25.74
2022-08-10T02:22:38.058Z,25.73
2022-08-10T02:23:45.750Z,25.70
2022-08-10T02:25:00.955Z,25.68
2022-08-10T02:26:02.516Z,25.65
2022-08-10T02:27:05.815Z,25.65
2022-08-10T02:28:07.874Z,25.63
2022-08-10T02:29:09.814Z,25.63
2022-08-10T02:30:11.436Z,25.62
2022-08-10T02:31:14.504Z,25.59
2022-08-10T02:32:25.694Z,25.58
2022-08-10T02:33:38.491Z,25.57
2022-08-10T02:34:57.822Z,25.55
2022-08-10T02:36:00.499Z,25.53
2022-08-10T02:37:02.042Z,25.52
2022-08-10T02:38:12.493Z,25.51
2022-08-10T02:39:14.024Z,25.51
2022-08-10T02:42:17.950Z,25.50
2022-08-10T02:45:01.996Z,25.46
2022-08-10T02:45:18.090Z,25.45
2022-08-10T02:45:20.718Z,25.46
2022-08-10T02:46:08.692Z,25.43
2022-08-10T02:47:10.672Z,25.41
2022-08-10T02:48:13.604Z,25.40
2022-08-10T02:49:18.619Z,25.38
2022-08-10T02:50:25.559Z,25.36
2022-08-10T02:52:08.009Z,25.35
2022-08-10T02:52:54.519Z,25.34
2022-08-10T02:54:01.615Z,25.33
2022-08-10T02:55:04.658Z,25.32
2022-08-10T02:56:23.112Z,25.33
2022-08-10T02:57:28.831Z,25.32
2022-08-10T02:58:51.252Z,25.30
2022-08-10T02:59:53.952Z,25.29
2022-08-10T03:00:55.862Z,25.26
2022-08-10T03:01:57.908Z,25.25
2022-08-10T03:02:59.399Z,25.21
2022-08-10T03:04:04.488Z,25.19
2022-08-10T03:05:09.694Z,25.17
2022-08-10T03:06:12.047Z,25.16
2022-08-10T03:07:13.863Z,25.15
2022-08-10T03:08:15.950Z,25.13
2022-08-10T03:09:17.959Z,25.13
2022-08-10T03:10:20.350Z,25.12
2022-08-10T03:12:35.348Z,25.11
2022-08-10T03:12:49.462Z,25.10
2022-08-10T03:13:59.490Z,25.09
2022-08-10T03:15:01.568Z,25.07
2022-08-10T03:16:03.114Z,25.06
2022-08-10T03:17:04.849Z,25.03
2022-08-10T03:18:06.432Z,25.04
2022-08-10T03:19:08.433Z,25.01
2022-08-10T03:20:39.572Z,24.98
2022-08-10T03:21:41.593Z,24.98
2022-08-10T03:22:43.087Z,24.95
2022-08-10T03:23:44.591Z,24.95
2022-08-10T03:24:46.064Z,24.95
2022-08-10T03:25:52.966Z,24.94
2022-08-10T03:26:55.765Z,24.93
2022-08-10T03:27:57.302Z,24.92
2022-08-10T03:28:59.522Z,24.90
2022-08-10T03:30:28.667Z,24.89
2022-08-10T03:31:23.006Z,24.87
2022-08-10T03:32:25.521Z,24.86
2022-08-10T03:33:28.303Z,24.87
2022-08-10T03:34:33.355Z,24.87
2022-08-10T03:35:35.310Z,24.85
2022-08-10T03:36:41.782Z,24.84
2022-08-10T03:37:46.405Z,24.84
2022-08-10T03:38:51.603Z,24.83
2022-08-10T03:39:54.609Z,24.82
2022-08-10T03:40:57.564Z,24.81
2022-08-10T03:42:00.138Z,24.81
2022-08-10T03:43:01.893Z,24.77
2022-08-10T03:44:04.296Z,24.74
2022-08-10T03:45:06.060Z,24.74
2022-08-10T03:46:08.049Z,24.74
2022-08-10T03:47:16.194Z,24.74
2022-08-10T03:48:18.567Z,24.72
2022-08-10T03:49:20.328Z,24.69
2022-08-10T03:50:28.873Z,24.69
2022-08-10T03:51:43.388Z,24.67
2022-08-10T03:52:44.878Z,24.68
2022-08-10T03:54:03.302Z,24.67
2022-08-10T03:55:08.213Z,24.64
2022-08-10T03:56:26.894Z,24.64
2022-08-10T03:57:31.259Z,24.64
2022-08-10T03:58:32.842Z,24.63
2022-08-10T03:59:36.179Z,24.62
2022-08-10T04:00:37.958Z,24.61
2022-08-10T04:02:45.115Z,24.59
2022-08-10T04:03:03.066Z,24.55
2022-08-10T04:04:12.512Z,24.56
2022-08-10T04:05:17.089Z,24.55
2022-08-10T04:06:18.609Z,24.55
2022-08-10T04:07:20.144Z,24.55
2022-08-10T04:08:21.612Z,24.53
2022-08-10T04:09:43.048Z,24.51
2022-08-10T04:10:47.077Z,24.48
2022-08-10T04:11:48.584Z,24.48
2022-08-10T04:12:50.060Z,24.47
2022-08-10T04:13:52.534Z,24.47
2022-08-10T04:14:54.165Z,24.45
2022-08-10T04:15:55.728Z,24.45
2022-08-10T04:16:57.225Z,24.46
2022-08-10T04:18:05.019Z,24.45
2022-08-10T04:19:07.523Z,24.43
2022-08-10T04:20:19.497Z,24.42
2022-08-10T04:21:22.392Z,24.42
2022-08-10T04:22:24.150Z,24.42
2022-08-10T04:23:27.008Z,24.41
2022-08-10T04:24:30.073Z,24.38
2022-08-10T04:25:34.683Z,24.38
2022-08-10T04:26:36.179Z,24.37
2022-08-10T04:27:37.675Z,24.34
2022-08-10T04:28:42.044Z,24.34
2022-08-10T04:29:43.550Z,24.34
2022-08-10T04:30:45.854Z,24.33
2022-08-10T04:31:47.355Z,24.34
2022-08-10T04:32:50.191Z,24.34
2022-08-10T04:33:51.696Z,24.34
2022-08-10T04:34:53.207Z,24.33
2022-08-10T04:35:54.779Z,24.33
2022-08-10T04:36:56.284Z,24.32
2022-08-10T04:37:58.036Z,24.30
2022-08-10T04:38:59.592Z,24.31
2022-08-10T04:40:01.126Z,24.30
2022-08-10T04:41:02.669Z,24.30
2022-08-10T04:42:04.325Z,24.29
2022-08-10T04:43:13.655Z,24.30
2022-08-10T04:44:15.304Z,24.29
2022-08-10T04:45:17.468Z,24.28
2022-08-10T04:46:55.549Z,24.28
2022-08-10T04:48:00.450Z,24.27
2022-08-10T04:49:02.247Z,24.26
2022-08-10T04:50:06.606Z,24.25
2022-08-10T04:51:11.111Z,24.25
2022-08-10T04:52:18.980Z,24.24
2022-08-10T04:53:20.557Z,24.23
2022-08-10T04:54:22.075Z,24.21
2022-08-10T04:55:24.221Z,24.20
2022-08-10T04:56:31.839Z,24.18
2022-08-10T04:57:33.704Z,24.18
2022-08-10T04:58:35.636Z,24.19
2022-08-10T04:59:37.167Z,24.17
2022-08-10T05:00:38.780Z,24.17
2022-08-10T05:02:30.608Z,24.16
2022-08-10T05:03:01.968Z,24.16
2022-08-10T05:04:34.934Z,24.15
2022-08-10T05:05:25.149Z,24.14
2022-08-10T05:06:26.676Z,24.14
2022-08-10T05:07:28.242Z,24.10
2022-08-10T05:08:29.815Z,24.07
2022-08-10T05:09:31.293Z,24.06
2022-08-10T05:10:32.907Z,24.05
2022-08-10T05:11:35.110Z,24.05
2022-08-10T05:12:37.937Z,24.03
2022-08-10T05:13:40.127Z,24.05
2022-08-10T05:14:41.698Z,24.08
2022-08-10T05:15:45.333Z,24.11
2022-08-10T05:16:46.838Z,24.13
2022-08-10T05:18:03.344Z,24.14
2022-08-10T05:19:09.843Z,24.16
2022-08-10T05:20:11.704Z,24.18
2022-08-10T05:22:03.115Z,24.19
2022-08-10T05:22:35.711Z,24.23
2022-08-10T05:23:41.022Z,24.24
2022-08-10T05:24:42.803Z,24.26
2022-08-10T05:25:44.314Z,24.27
2022-08-10T05:27:00.669Z,24.29
2022-08-10T05:28:07.365Z,24.30
2022-08-10T05:29:08.852Z,24.32
2022-08-10T05:30:11.675Z,24.34
2022-08-10T05:31:16.452Z,24.35
2022-08-10T05:32:25.376Z,24.38
2022-08-10T05:33:26.919Z,24.38
2022-08-10T05:34:30.054Z,24.40
2022-08-10T05:35:56.848Z,24.43
2022-08-10T05:36:57.756Z,24.45
2022-08-10T05:38:09.115Z,24.46
2022-08-10T05:39:15.322Z,24.48
2022-08-10T05:40:16.926Z,24.50
2022-08-10T05:41:18.502Z,24.53
2022-08-10T05:42:21.664Z,24.55
2022-08-10T05:43:24.040Z,24.58
2022-08-10T05:44:25.547Z,24.53
2022-08-10T05:45:27.396Z,24.60
2022-08-10T05:46:28.885Z,24.62
2022-08-10T05:48:54.365Z,24.64
2022-08-10T05:48:59.533Z,24.65
2022-08-10T05:50:02.379Z,24.66
2022-08-10T05:51:06.786Z,24.68
2022-08-10T05:52:08.340Z,24.71
2022-08-10T05:54:01.983Z,24.72
2022-08-10T05:54:31.503Z,24.76
2022-08-10T05:55:32.995Z,24.77
2022-08-10T05:56:56.456Z,24.80
2022-08-10T05:57:57.035Z,24.82
2022-08-10T05:58:58.564Z,24.84
2022-08-10T06:00:33.384Z,24.87
2022-08-10T06:01:25.004Z,24.90
2022-08-10T06:02:33.059Z,24.92
2022-08-10T06:03:58.491Z,24.93
2022-08-10T06:05:00.791Z,24.97
2022-08-10T06:06:02.410Z,25.00
2022-08-10T06:07:04.739Z,25.02
2022-08-10T06:08:06.326Z,25.06
2022-08-10T06:09:07.818Z,25.09
2022-08-10T06:10:11.525Z,25.12
2022-08-10T06:12:26.565Z,25.13
2022-08-10T06:12:54.202Z,25.16
2022-08-10T06:14:16.167Z,25.21
2022-08-10T06:15:21.537Z,25.24
2022-08-10T06:16:27.970Z,25.27
2022-08-10T06:17:30.327Z,25.30
2022-08-10T06:18:31.886Z,25.32
2022-08-10T06:19:33.553Z,25.33
2022-08-10T06:20:36.273Z,25.33
2022-08-10T06:21:38.163Z,25.39
2022-08-10T06:22:39.676Z,25.41
2022-08-10T06:23:41.192Z,25.46
2022-08-10T06:25:04.586Z,25.46
2022-08-10T06:26:11.888Z,25.49
2022-08-10T06:27:15.683Z,25.52
2022-08-10T06:28:17.243Z,25.56
2022-08-10T06:29:18.815Z,25.59
2022-08-10T06:30:21.184Z,25.61
2022-08-10T06:31:22.807Z,25.61
2022-08-10T06:32:25.684Z,25.62
2022-08-10T06:33:28.049Z,25.64
2022-08-10T06:34:30.882Z,25.67
2022-08-10T06:35:32.522Z,25.72
2022-08-10T06:36:34.274Z,25.75
2022-08-10T06:37:35.766Z,25.76
2022-08-10T06:38:38.155Z,25.79
2022-08-10T06:39:39.701Z,25.82
2022-08-10T06:40:43.834Z,25.85
2022-08-10T06:42:14.179Z,25.89
2022-08-10T06:43:09.998Z,25.93
2022-08-10T06:44:11.811Z,25.95
2022-08-10T06:45:14.175Z,25.96
2022-08-10T06:46:16.616Z,25.99
2022-08-10T06:47:22.978Z,26.03
2022-08-10T06:48:25.898Z,26.07
2022-08-10T06:49:27.400Z,26.09
2022-08-10T06:50:45.125Z,26.08
2022-08-10T06:51:57.666Z,26.11
2022-08-10T06:52:59.228Z,26.13
2022-08-10T06:54:06.006Z,26.16
2022-08-10T06:55:08.951Z,26.20
2022-08-10T06:56:11.652Z,26.23
2022-08-10T06:57:20.334Z,26.27
2022-08-10T06:58:23.751Z,26.28
2022-08-10T06:59:32.575Z,26.32
2022-08-10T07:00:34.517Z,26.38
2022-08-10T07:01:36.747Z,26.37
2022-08-10T07:02:46.056Z,26.38
2022-08-10T07:03:54.090Z,26.42
2022-08-10T07:05:02.820Z,26.44
2022-08-10T07:06:04.651Z,26.48
2022-08-10T07:07:06.569Z,26.51
2022-08-10T07:08:08.111Z,26.54
2022-08-10T07:09:09.833Z,26.57
2022-08-10T07:10:17.655Z,26.60
2022-08-10T07:11:19.984Z,26.64
2022-08-10T07:12:22.943Z,26.66
2022-08-10T07:14:15.500Z,26.70
2022-08-10T07:14:46.013Z,26.73
2022-08-10T07:15:57.278Z,26.76
2022-08-10T07:17:02.291Z,26.76
2022-08-10T07:18:04.160Z,26.78
2022-08-10T07:19:06.538Z,26.81
2022-08-10T07:20:12.130Z,26.86
2022-08-10T07:21:13.627Z,26.89
2022-08-10T07:23:51.931Z,26.94
2022-08-10T07:23:58.977Z,26.98
2022-08-10T07:24:58.594Z,27.04
2022-08-10T07:26:00.201Z,27.07
2022-08-10T07:27:01.701Z,27.09
2022-08-10T07:28:03.355Z,27.12
2022-08-10T07:29:05.086Z,27.15
2022-08-10T07:30:06.925Z,27.16
2022-08-10T07:31:55.171Z,27.20
2022-08-10T07:32:29.915Z,27.24
2022-08-10T07:33:31.437Z,27.27
2022-08-10T07:34:33.155Z,27.26
2022-08-10T07:35:42.015Z,27.31
2022-08-10T07:36:45.059Z,27.34
2022-08-10T07:37:49.199Z,27.37
2022-08-10T07:38:51.607Z,27.42
2022-08-10T07:39:57.960Z,27.43
2022-08-10T07:41:05.407Z,27.45
2022-08-10T07:42:07.126Z,27.50
2022-08-10T07:43:08.643Z,27.52
2022-08-10T07:44:10.580Z,27.57
2022-08-10T07:45:12.130Z,27.59
2022-08-10T07:46:14.433Z,27.63
2022-08-10T07:47:17.302Z,27.68
2022-08-10T07:48:29.023Z,27.70
2022-08-10T07:49:32.418Z,27.71
2022-08-10T07:50:35.423Z,27.74
2022-08-10T07:51:37.871Z,27.78
2022-08-10T07:52:40.051Z,27.82
2022-08-10T07:53:43.811Z,27.86
2022-08-10T07:54:45.713Z,27.90
2022-08-10T07:56:05.458Z,27.93
2022-08-10T07:57:10.199Z,27.98
2022-08-10T07:58:11.723Z,28.02
2022-08-10T07:59:14.991Z,28.04
2022-08-10T08:00:16.732Z,28.08
2022-08-10T08:01:18.900Z,28.11
2022-08-10T08:02:23.603Z,28.15
2022-08-10T08:03:25.506Z,28.18
2022-08-10T08:04:27.112Z,28.19
2022-08-10T08:05:57.576Z,28.23
2022-08-10T08:06:51.111Z,28.28
2022-08-10T08:07:53.288Z,28.34
2022-08-10T08:08:54.892Z,28.37
2022-08-10T08:09:57.895Z,28.40
2022-08-10T08:11:02.585Z,28.44
2022-08-10T08:12:04.895Z,28.47
2022-08-10T08:13:06.399Z,28.52
2022-08-10T08:14:08.171Z,28.56
2022-08-10T08:16:14.484Z,28.60
2022-08-10T08:16:31.467Z,28.63
2022-08-10T08:17:36.403Z,28.64
2022-08-10T08:18:38.176Z,28.68
2022-08-10T08:19:46.093Z,28.70
2022-08-10T08:20:58.173Z,28.77
2022-08-10T08:24:10.246Z,28.86
2022-08-10T08:24:13.657Z,28.81
2022-08-10T08:24:43.283Z,28.90
2022-08-10T08:25:45.309Z,28.94
2022-08-10T08:26:52.062Z,28.96
2022-08-10T08:27:55.909Z,28.98
2022-08-10T08:28:57.379Z,29.02
2022-08-10T08:29:58.858Z,29.07
2022-08-10T08:31:00.448Z,29.07
2022-08-10T08:32:03.622Z,29.10
2022-08-10T08:33:06.243Z,29.13
2022-08-10T08:34:07.974Z,29.16
2022-08-10T08:35:10.166Z,29.19
2022-08-10T08:36:11.688Z,29.20
2022-08-10T08:37:18.871Z,29.25
2022-08-10T08:38:36.887Z,29.33
2022-08-10T08:39:38.553Z,29.34
2022-08-10T08:40:41.280Z,29.40
2022-08-10T08:41:51.293Z,29.44
2022-08-10T08:43:09.372Z,29.48
2022-08-10T08:44:16.529Z,29.52
2022-08-10T08:45:36.971Z,29.53
2022-08-10T08:47:01.412Z,29.57
2022-08-10T08:48:21.705Z,29.63
2022-08-10T08:50:09.020Z,29.70
2022-08-10T08:52:12.416Z,29.76
2022-08-10T08:52:42.514Z,29.84
2022-08-10T08:54:01.039Z,29.88
2022-08-10T08:56:04.768Z,29.93
2022-08-10T08:56:29.840Z,30.01
2022-08-10T08:57:49.058Z,30.07
2022-08-10T08:58:58.462Z,30.12
2022-08-10T09:00:13.511Z,30.17
2022-08-10T09:01:23.935Z,30.23
2022-08-10T09:02:45.519Z,30.28
2022-08-10T09:04:21.044Z,30.33
2022-08-10T09:05:23.737Z,30.35
2022-08-10T09:06:44.227Z,30.40
2022-08-10T09:08:01.885Z,30.41
2022-08-10T09:09:15.559Z,30.45
2022-08-10T09:10:37.797Z,30.52
2022-08-10T09:12:02.378Z,30.57
2022-08-10T09:13:06.721Z,30.64
2022-08-10T09:14:25.568Z,30.70
2022-08-10T09:15:39.832Z,30.77
2022-08-10T09:16:45.004Z,30.77
2022-08-10T09:18:12.704Z,30.78
2022-08-10T09:19:35.613Z,30.82
2022-08-10T09:20:38.449Z,30.88
2022-08-10T09:22:13.483Z,30.89
2022-08-10T09:23:05.847Z,30.99
2022-08-10T09:24:18.629Z,31.03
2022-08-10T09:25:22.974Z,31.08
2022-08-10T09:26:43.089Z,31.13
2022-08-10T09:27:49.370Z,31.18
2022-08-10T09:29:12.651Z,31.25
2022-08-10T09:30:18.269Z,31.30
2022-08-10T09:31:23.030Z,31.33
2022-08-10T09:36:13.758Z,31.38
2022-08-10T09:36:26.783Z,31.44
2022-08-10T09:36:29.274Z,31.42
2022-08-10T09:37:02.189Z,31.47
2022-08-10T09:38:22.830Z,31.51
2022-08-10T09:40:12.449Z,31.55
2022-08-10T09:41:12.836Z,31.58
2022-08-10T09:42:20.895Z,31.60
2022-08-10T09:43:26.734Z,31.59
2022-08-10T09:44:58.351Z,31.58
2022-08-10T09:46:23.642Z,31.63
2022-08-10T09:47:58.615Z,31.65
2022-08-10T09:48:58.795Z,31.59
2022-08-10T09:50:04.442Z,31.65
2022-08-10T09:52:36.038Z,31.71
2022-08-10T09:53:52.807Z,31.73
2022-08-10T09:54:58.157Z,31.79
2022-08-10T09:56:16.967Z,31.76
2022-08-10T09:57:41.329Z,31.77
2022-08-10T09:58:45.208Z,31.83
2022-08-10T10:00:00.364Z,31.82
2022-08-10T10:01:58.299Z,31.92
2022-08-10T10:02:56.513Z,31.88
2022-08-10T10:04:22.458Z,31.87
2022-08-10T10:05:36.888Z,31.89
2022-08-10T10:06:52.102Z,31.95
2022-08-10T10:07:55.743Z,31.94
2022-08-10T10:09:10.680Z,32.01
2022-08-10T10:10:13.895Z,32.07
2022-08-10T10:11:18.167Z,32.12
2022-08-10T10:12:22.135Z,32.16
2022-08-10T10:13:52.864Z,32.19
2022-08-10T10:15:24.887Z,32.28
2022-08-10T10:16:42.200Z,32.28
2022-08-10T10:18:02.269Z,32.24
2022-08-10T10:19:22.424Z,32.28
2022-08-10T10:20:26.096Z,32.28
2022-08-10T10:21:54.993Z,32.20
2022-08-10T10:23:17.726Z,32.18
2022-08-10T10:24:25.168Z,32.22
2022-08-10T10:25:51.361Z,32.19
2022-08-10T10:26:57.224Z,32.24
2022-08-10T10:28:13.634Z,32.30
2022-08-10T10:29:58.422Z,32.23
2022-08-10T10:31:01.035Z,32.16
2022-08-10T10:32:04.197Z,32.13
2022-08-10T10:33:15.485Z,32.03
2022-08-10T10:34:23.099Z,31.95
2022-08-10T10:35:27.071Z,31.89
2022-08-10T10:36:28.563Z,31.92
2022-08-10T10:38:01.003Z,32.00
2022-08-10T10:38:52.035Z,32.11
2022-08-10T10:39:53.960Z,32.12
2022-08-10T10:40:59.331Z,32.14
2022-08-10T10:42:14.615Z,32.22
2022-08-10T10:43:43.855Z,32.25
2022-08-10T10:44:45.305Z,32.34
2022-08-10T10:45:50.223Z,32.37
2022-08-10T10:46:52.451Z,32.40
2022-08-10T10:48:03.396Z,32.45
2022-08-10T10:49:10.605Z,32.49
2022-08-10T10:50:20.041Z,32.62
2022-08-10T10:51:25.839Z,32.60
2022-08-10T10:52:29.641Z,32.65
2022-08-10T10:53:34.218Z,32.70
2022-08-10T10:54:40.747Z,32.72
2022-08-10T10:56:13.833Z,32.78
2022-08-10T10:57:19.543Z,32.76
2022-08-10T10:58:39.860Z,32.79
2022-08-10T10:59:55.052Z,32.80
2022-08-10T11:01:02.999Z,32.74
2022-08-10T11:02:17.760Z,32.76
2022-08-10T11:03:19.290Z,32.71
2022-08-10T11:04:25.232Z,32.70
2022-08-10T11:05:46.678Z,32.71
2022-08-10T11:07:01.218Z,32.77
2022-08-10T11:08:02.727Z,32.83
2022-08-10T11:10:03.924Z,32.87
2022-08-10T11:10:47.722Z,32.98
2022-08-10T11:12:02.053Z,33.03
2022-08-10T11:14:26.143Z,33.07
2022-08-10T11:14:39.395Z,33.14
2022-08-10T11:15:47.641Z,33.18
2022-08-10T11:16:57.253Z,33.27
2022-08-10T11:18:03.698Z,33.34
2022-08-10T11:19:05.205Z,33.43
2022-08-10T11:20:06.812Z,33.45
2022-08-10T11:21:26.874Z,33.48
2022-08-10T11:22:30.301Z,33.53
2022-08-10T11:23:44.788Z,33.55
2022-08-10T11:25:09.193Z,33.52
2022-08-10T11:26:11.939Z,33.57
2022-08-10T11:27:30.624Z,33.64
2022-08-10T11:28:43.822Z,33.68
2022-08-10T11:29:49.727Z,33.70
2022-08-10T11:30:57.572Z,33.74
2022-08-10T11:32:02.923Z,33.77
2022-08-10T11:33:32.875Z,33.73
2022-08-10T11:34:48.170Z,33.63
2022-08-10T11:36:00.720Z,33.59
2022-08-10T11:37:21.078Z,33.61
2022-08-10T11:38:34.594Z,33.64
2022-08-10T11:39:48.845Z,33.58
2022-08-10T11:40:57.179Z,33.56
2022-08-10T11:42:28.709Z,33.53
2022-08-10T11:43:35.822Z,33.42
2022-08-10T11:44:37.322Z,33.43
2022-08-10T11:45:52.571Z,33.43
2022-08-10T11:47:06.113Z,33.48
2022-08-10T11:48:54.440Z,33.44
2022-08-10T11:49:55.924Z,33.47
2022-08-10T11:51:01.399Z,33.43
2022-08-10T11:52:08.955Z,33.47
2022-08-10T11:53:23.547Z,33.48
2022-08-10T11:54:26.577Z,33.48
2022-08-10T11:55:32.855Z,33.50
2022-08-10T11:56:40.119Z,33.50
2022-08-10T11:57:53.827Z,33.49
2022-08-10T11:59:17.217Z,33.49
2022-08-10T12:00:19.068Z,33.52
2022-08-10T12:01:24.488Z,33.54
2022-08-10T12:03:01.518Z,33.49
2022-08-10T12:04:07.455Z,33.43
2022-08-10T12:05:46.606Z,33.39
2022-08-10T12:06:55.691Z,33.36
2022-08-10T12:10:02.426Z,33.35
2022-08-10T12:10:11.564Z,33.37
2022-08-10T12:10:42.678Z,33.41
2022-08-10T12:11:44.235Z,33.47
2022-08-10T12:12:47.431Z,33.49
2022-08-10T12:14:10.665Z,33.50
2022-08-10T12:15:16.085Z,33.55
2022-08-10T12:16:20.823Z,33.63
2022-08-10T12:17:27.096Z,33.70
2022-08-10T12:18:30.789Z,33.77
2022-08-10T12:20:01.567Z,33.79
2022-08-10T12:21:07.616Z,33.82
2022-08-10T12:22:11.186Z,33.82
2022-08-10T12:23:31.384Z,33.84
2022-08-10T12:24:52.104Z,33.81
2022-08-10T12:25:57.376Z,33.83
2022-08-10T12:27:02.904Z,33.83
2022-08-10T12:28:09.732Z,33.81
2022-08-10T12:29:29.546Z,33.81
2022-08-10T12:30:32.517Z,33.83
2022-08-10T12:31:33.970Z,33.87
2022-08-10T12:32:53.905Z,33.91
2022-08-10T12:34:02.305Z,33.92
2022-08-10T12:35:04.678Z,33.98
2022-08-10T12:36:18.247Z,34.00
2022-08-10T12:37:24.994Z,34.04
2022-08-10T12:38:45.112Z,34.06
2022-08-10T12:39:46.661Z,33.98
2022-08-10T12:41:08.509Z,33.99
2022-08-10T12:42:39.311Z,33.93
2022-08-10T12:44:05.167Z,33.86
2022-08-10T12:45:13.794Z,33.87
2022-08-10T12:46:19.787Z,33.86
2022-08-10T12:47:40.820Z,33.88
2022-08-10T12:48:44.150Z,33.94
2022-08-10T12:50:29.908Z,33.96
2022-08-10T12:51:21.535Z,33.93
2022-08-10T12:52:45.896Z,33.89
2022-08-10T12:53:56.696Z,33.87
2022-08-10T12:54:58.657Z,33.93
2022-08-10T12:56:01.707Z,33.99
2022-08-10T12:57:04.647Z,34.04
2022-08-10T12:58:57.990Z,34.04
2022-08-10T12:59:29.028Z,33.97
2022-08-10T13:00:31.652Z,33.81
2022-08-10T13:02:10.642Z,33.76
2022-08-10T13:02:55.790Z,33.79
2022-08-10T13:04:23.569Z,33.80
2022-08-10T13:05:26.007Z,33.85
2022-08-10T13:06:27.823Z,33.86
2022-08-10T13:08:24.748Z,33.82
2022-08-10T13:09:09.793Z,33.76
2022-08-10T13:10:12.083Z,33.81
2022-08-10T13:12:34.139Z,33.83
2022-08-10T13:12:44.566Z,33.88
2022-08-10T13:13:46.704Z,33.92
2022-08-10T13:14:53.295Z,33.94
2022-08-10T13:15:57.349Z,33.97
2022-08-10T13:16:58.911Z,34.01
2022-08-10T13:18:01.387Z,34.02
2022-08-10T13:19:03.560Z,34.02
2022-08-10T13:20:18.664Z,33.94
2022-08-10T13:21:21.245Z,33.93
2022-08-10T13:22:23.797Z,33.94
2022-08-10T13:23:26.895Z,33.96
2022-08-10T13:24:29.567Z,33.99
2022-08-10T13:25:35.370Z,34.02
2022-08-10T13:26:49.517Z,34.03
2022-08-10T13:28:36.086Z,34.08
2022-08-10T13:29:26.231Z,34.09
2022-08-10T13:30:38.017Z,34.10
2022-08-10T13:32:09.240Z,34.08
2022-08-10T13:33:02.830Z,34.05
2022-08-10T13:34:42.156Z,34.06
2022-08-10T13:35:27.326Z,34.07
2022-08-10T13:36:29.254Z,34.04
2022-08-10T13:37:30.987Z,34.00
2022-08-10T13:38:32.474Z,34.05
2022-08-10T13:39:57.791Z,34.08
2022-08-10T13:41:00.021Z,34.14
2022-08-10T13:42:01.990Z,34.15
2022-08-10T13:43:05.608Z,34.18
2022-08-10T13:44:07.477Z,34.18
2022-08-10T13:45:12.461Z,34.19
2022-08-10T13:46:22.577Z,34.20
2022-08-10T13:47:28.664Z,34.23
2022-08-10T13:48:30.700Z,34.25
2022-08-10T13:49:32.697Z,34.27
2022-08-10T13:50:35.207Z,34.31
2022-08-10T13:51:53.811Z,34.33
2022-08-10T13:53:01.260Z,34.32
2022-08-10T13:54:03.046Z,34.31
2022-08-10T13:55:09.648Z,34.33
2022-08-10T13:56:11.857Z,34.37
2022-08-10T13:57:13.871Z,34.38
2022-08-10T13:58:16.298Z,34.40
2022-08-10T13:59:17.787Z,34.40
2022-08-10T14:00:34.358Z,34.42
2022-08-10T14:01:38.833Z,34.44
2022-08-10T14:02:48.492Z,34.46
2022-08-10T14:03:50.395Z,34.50
2022-08-10T14:04:52.524Z,34.55
2022-08-10T14:05:54.476Z,34.50
2022-08-10T14:06:56.703Z,34.52
2022-08-10T14:08:00.230Z,34.57
2022-08-10T14:09:07.081Z,34.55
2022-08-10T14:10:09.590Z,34.58
2022-08-10T14:11:14.936Z,34.60
2022-08-10T14:12:16.453Z,34.64
2022-08-10T14:13:17.936Z,34.65
2022-08-10T14:14:20.718Z,34.67
2022-08-10T14:15:26.688Z,34.69
2022-08-10T14:16:28.173Z,34.69
2022-08-10T14:17:29.683Z,34.67
2022-08-10T14:18:33.231Z,34.64
2022-08-10T14:19:36.735Z,34.63
2022-08-10T14:20:44.927Z,34.58
2022-08-10T14:21:46.435Z,34.56
2022-08-10T14:22:47.920Z,34.57
2022-08-10T14:23:53.177Z,34.55
2022-08-10T14:25:03.832Z,34.56
2022-08-10T14:26:08.912Z,34.51
2022-08-10T14:27:11.703Z,34.49
2022-08-10T14:28:13.425Z,34.49
2022-08-10T14:29:18.887Z,34.50
2022-08-10T14:30:21.272Z,34.53
2022-08-10T14:31:23.098Z,34.52
2022-08-10T14:32:25.979Z,34.52
2022-08-10T14:33:27.516Z,34.55
2022-08-10T14:36:16.786Z,34.53
2022-08-10T14:36:18.895Z,34.55
2022-08-10T14:37:16.463Z,34.60
2022-08-10T14:38:18.330Z,34.61
2022-08-10T14:39:31.397Z,34.64